Agawam, MA (01001)

8:09 AM EDT on September 30, 2016 (GMT -0400)
Sheri Lane | | Change Station

Elev 177 ft 42.08 °N, 72.64 °W | Updated 20 seconds ago

Overcast
Overcast
54.0 °F
Feels Like 54.0 °F
N
1.6
Wind Variable Wind from West
Gusts 2.7 mph

Today
High -- | Low -- °F
--% Chance of Precip.
Yesterday
High -- | Low -- °F
Precip. -- in
Pressure 30.44 in
Visibility 10.0 miles
Clouds Mostly Cloudy 2200 ft
Overcast 2800 ft
Dew Point 48 °F
Humidity 79%
Rainfall 0.00 in
Snow Depth Not available.
6:46 AM 6:32 PM
Waning Crescent, 0% visible
METAR KBAF 301153Z 02009KT 10SM BKN022 OVC028 12/08 A3044 RMK AO2 SLP308 T01170083 10117 20106 58001
Pressure 30.44 in
Visibility 10.0 miles
Clouds Mostly Cloudy 2200 ft
Overcast 2800 ft
Dew Point 48 °F
Humidity 79%
Rainfall 0.00 in
Snow Depth Not available.
6:46 AM 6:32 PM
Waning Crescent, 0% visible
METAR KBAF 301153Z 02009KT 10SM BKN022 OVC028 12/08 A3044 RMK AO2 SLP308 T01170083 10117 20106 58001

10-Day Weather Forecast

Almanac

Astronomy

Sep. 30, 2016 Rise Set
Actual Time
Civil Twilight
Nautical Twilight
Astronomical Twilight
Moon
Length of Visible Light
Length of Day
Tomorrow will be .
, % of the Moon is Illuminated

Today's Extremes

State Highs State Lows

Community

WunderPhotos

Upload Photos

1,942,706 photos uploaded!

WunderBlog® & News

Nearby

Air Quality

  Air Quality AQ Index Pollutant
Not available.

Snow Depth

Station Depth Elevation

Earthquake Activity

City Distance Mag. Time & Date
Minimum magnitude displayed is 2.5.

Coastal Water Temperatures

Place Temperature

Stations

Nearby Weather Stations

Station Location Temp. Windchill Dew Point Humidity Wind Precip. Elev Updated Type
                   

Watches & Warnings

There are currently no watches in effect.